createdAt,value
2022-08-20T00:00:09.148Z,16.77
2022-08-20T00:01:09.397Z,16.76
2022-08-20T00:02:09.275Z,16.76
2022-08-20T00:03:09.073Z,16.77
2022-08-20T00:04:09.174Z,16.74
2022-08-20T00:05:09.153Z,16.69
2022-08-20T00:06:09.154Z,16.66
2022-08-20T00:07:09.012Z,16.69
2022-08-20T00:08:09.153Z,16.65
2022-08-20T00:09:08.994Z,16.65
2022-08-20T00:10:09.154Z,16.66
2022-08-20T00:11:09.063Z,16.69
2022-08-20T00:12:09.153Z,16.66
2022-08-20T00:13:09.018Z,16.64
2022-08-20T00:14:08.918Z,16.64
2022-08-20T00:15:08.998Z,16.68
2022-08-20T00:16:08.961Z,16.73
2022-08-20T00:17:09.030Z,16.74
2022-08-20T00:18:08.889Z,16.76
2022-08-20T00:19:08.870Z,16.77
2022-08-20T00:20:08.857Z,16.79
2022-08-20T00:21:09.093Z,16.79
2022-08-20T00:22:08.827Z,16.80
2022-08-20T00:23:10.624Z,16.79
2022-08-20T00:24:08.861Z,16.77
2022-08-20T00:25:09.003Z,16.76
2022-08-20T00:26:08.851Z,16.76
2022-08-20T00:27:08.814Z,16.76
2022-08-20T00:28:08.863Z,16.74
2022-08-20T00:29:08.733Z,16.73
2022-08-20T00:30:08.850Z,16.74
2022-08-20T00:31:08.721Z,16.68
2022-08-20T00:32:08.932Z,16.66
2022-08-20T00:33:08.677Z,16.69
2022-08-20T00:34:08.832Z,16.69
2022-08-20T00:35:08.677Z,16.68
2022-08-20T00:36:08.638Z,16.62
2022-08-20T00:37:08.689Z,16.57
2022-08-20T00:38:08.677Z,16.55
2022-08-20T00:39:08.678Z,16.49
2022-08-20T00:40:22.551Z,16.41
2022-08-20T00:41:08.697Z,16.39
2022-08-20T00:42:08.538Z,16.37
2022-08-20T00:43:08.688Z,16.34
2022-08-20T00:44:08.517Z,16.31
2022-08-20T00:45:08.703Z,16.28
2022-08-20T00:46:08.530Z,16.26
2022-08-20T00:47:08.509Z,16.26
2022-08-20T00:48:08.522Z,16.31
2022-08-20T00:49:08.532Z,16.28
2022-08-20T00:50:08.533Z,16.24
2022-08-20T00:51:08.424Z,16.22
2022-08-20T00:52:08.531Z,16.22
2022-08-20T00:53:08.412Z,16.21
2022-08-20T00:54:08.542Z,16.17
2022-08-20T00:55:08.427Z,16.16
2022-08-20T00:56:08.527Z,16.13
2022-08-20T00:57:08.400Z,16.13
2022-08-20T00:58:08.731Z,16.12
2022-08-20T00:59:08.377Z,16.09
2022-08-20T01:00:08.537Z,16.10
2022-08-20T01:01:08.370Z,16.18
2022-08-20T01:02:08.573Z,16.21
2022-08-20T01:03:08.358Z,16.18
2022-08-20T01:04:08.290Z,16.16
2022-08-20T01:05:08.438Z,16.16
2022-08-20T01:06:08.529Z,16.16
2022-08-20T01:07:08.229Z,16.16
2022-08-20T01:08:08.223Z,16.17
2022-08-20T01:09:08.182Z,16.21
2022-08-20T01:10:08.252Z,16.24
2022-08-20T01:11:08.183Z,16.25
2022-08-20T01:12:08.223Z,16.26
2022-08-20T01:13:08.369Z,16.24
2022-08-20T01:14:08.192Z,16.25
2022-08-20T01:15:08.099Z,16.25
2022-08-20T01:16:08.262Z,16.24
2022-08-20T01:17:08.352Z,16.22
2022-08-20T01:18:08.188Z,16.18
2022-08-20T01:19:30.072Z,16.16
2022-08-20T01:20:08.219Z,16.16
2022-08-20T01:21:08.117Z,16.12
2022-08-20T01:22:08.030Z,16.18
2022-08-20T01:23:08.028Z,16.22
2022-08-20T01:24:08.198Z,16.26
2022-08-20T01:25:08.039Z,16.28
2022-08-20T01:26:08.017Z,16.32
2022-08-20T01:27:07.959Z,16.32
2022-08-20T01:28:08.189Z,16.31
2022-08-20T01:29:08.049Z,16.26
2022-08-20T01:30:07.914Z,16.24
2022-08-20T01:31:08.032Z,16.17
2022-08-20T01:32:07.944Z,16.13
2022-08-20T01:33:08.050Z,16.10
2022-08-20T01:34:07.894Z,16.08
2022-08-20T01:35:08.050Z,16.03
2022-08-20T01:36:07.873Z,15.99
2022-08-20T01:37:08.102Z,15.98
2022-08-20T01:38:07.889Z,15.91
2022-08-20T01:39:08.053Z,15.90
2022-08-20T01:40:09.358Z,15.85
2022-08-20T01:41:07.790Z,15.85
2022-08-20T01:42:07.947Z,15.84
2022-08-20T01:43:08.070Z,15.84
2022-08-20T01:44:08.651Z,15.83
2022-08-20T01:45:07.718Z,15.83
2022-08-20T01:46:07.697Z,15.84
2022-08-20T01:47:07.776Z,15.84
2022-08-20T01:48:07.897Z,15.83
2022-08-20T01:49:13.599Z,15.88
2022-08-20T01:50:07.891Z,15.91
2022-08-20T01:51:07.742Z,15.94
2022-08-20T01:52:07.629Z,15.98
2022-08-20T01:53:07.809Z,15.96
2022-08-20T01:54:07.889Z,15.92
2022-08-20T01:55:07.572Z,15.91
2022-08-20T01:56:07.571Z,15.90
2022-08-20T01:57:07.713Z,15.87
2022-08-20T01:58:07.633Z,15.84
2022-08-20T01:59:07.729Z,15.83
2022-08-20T02:00:07.570Z,15.81
2022-08-20T02:01:07.527Z,15.78
2022-08-20T02:02:07.467Z,15.80
2022-08-20T02:03:07.490Z,15.76
2022-08-20T02:04:07.672Z,15.75
2022-08-20T02:05:07.710Z,15.72
2022-08-20T02:06:07.568Z,15.70
2022-08-20T02:07:07.472Z,15.69
2022-08-20T02:08:07.576Z,15.69
2022-08-20T02:09:07.417Z,15.66
2022-08-20T02:10:07.577Z,15.62
2022-08-20T02:11:07.409Z,15.62
2022-08-20T02:12:07.362Z,15.65
2022-08-20T02:13:07.412Z,15.66
2022-08-20T02:14:07.343Z,15.67
2022-08-20T02:15:07.469Z,15.66
2022-08-20T02:16:07.553Z,15.62
2022-08-20T02:17:07.402Z,15.63
2022-08-20T02:18:08.205Z,15.60
2022-08-20T02:19:07.413Z,15.62
2022-08-20T02:20:07.244Z,15.55
2022-08-20T02:21:07.413Z,15.55
2022-08-20T02:22:07.234Z,15.59
2022-08-20T02:23:07.417Z,15.59
2022-08-20T02:24:07.257Z,15.57
2022-08-20T02:25:07.417Z,15.59
2022-08-20T02:26:07.330Z,15.57
2022-08-20T02:27:07.149Z,15.54
2022-08-20T02:28:07.257Z,15.52
2022-08-20T02:29:07.117Z,15.52
2022-08-20T02:30:07.257Z,15.52
2022-08-20T02:31:07.204Z,15.55
2022-08-20T02:32:32.435Z,15.55
2022-08-20T02:33:07.174Z,15.55
2022-08-20T02:34:22.013Z,15.57
2022-08-20T02:35:07.092Z,15.60
2022-08-20T02:36:07.033Z,15.59
2022-08-20T02:37:07.215Z,15.62
2022-08-20T02:38:07.253Z,15.66
2022-08-20T02:39:06.992Z,15.67
2022-08-20T02:40:07.055Z,15.66
2022-08-20T02:41:07.073Z,15.65
2022-08-20T02:42:07.243Z,15.67
2022-08-20T02:43:07.003Z,15.67
2022-08-20T02:44:06.932Z,15.69
2022-08-20T02:45:06.902Z,15.65
2022-08-20T02:46:06.950Z,15.63
2022-08-20T02:47:07.098Z,15.63
2022-08-20T02:48:07.033Z,15.60
2022-08-20T02:49:07.088Z,15.60
2022-08-20T02:50:06.958Z,15.59
2022-08-20T02:51:06.850Z,15.54
2022-08-20T02:52:06.918Z,15.54
2022-08-20T02:53:06.787Z,15.50
2022-08-20T02:54:06.890Z,15.48
2022-08-20T02:55:06.778Z,15.45
2022-08-20T02:56:06.768Z,15.47
2022-08-20T02:57:06.773Z,15.45
2022-08-20T02:58:06.902Z,15.44
2022-08-20T02:59:06.773Z,15.44
2022-08-20T03:00:06.773Z,15.44
2022-08-20T03:01:06.826Z,15.45
2022-08-20T03:02:06.681Z,15.44
2022-08-20T03:03:06.770Z,15.43
2022-08-20T03:04:06.912Z,15.41
2022-08-20T03:05:06.862Z,15.43
2022-08-20T03:06:06.662Z,15.41
2022-08-20T03:07:06.605Z,15.43
2022-08-20T03:08:06.631Z,15.41
2022-08-20T03:09:06.778Z,15.44
2022-08-20T03:10:06.687Z,15.47
2022-08-20T03:11:06.778Z,15.47
2022-08-20T03:12:06.608Z,15.51
2022-08-20T03:13:06.751Z,15.54
2022-08-20T03:14:06.607Z,15.55
2022-08-20T03:15:06.509Z,15.57
2022-08-20T03:16:06.660Z,15.57
2022-08-20T03:17:06.498Z,15.55
2022-08-20T03:18:06.610Z,15.59
2022-08-20T03:19:06.772Z,15.57
2022-08-20T03:20:06.613Z,15.54
2022-08-20T03:21:06.542Z,15.59
2022-08-20T03:22:06.612Z,15.63
2022-08-20T03:23:06.432Z,15.63
2022-08-20T03:24:06.602Z,15.62
2022-08-20T03:25:06.448Z,15.63
2022-08-20T03:26:06.372Z,15.62
2022-08-20T03:27:06.410Z,15.62
2022-08-20T03:28:06.332Z,15.63
2022-08-20T03:29:06.452Z,15.63
2022-08-20T03:30:06.330Z,15.63
2022-08-20T03:31:06.438Z,15.60
2022-08-20T03:32:07.872Z,15.57
2022-08-20T03:33:06.278Z,15.55
2022-08-20T03:34:06.301Z,15.51
2022-08-20T03:35:06.449Z,15.48
2022-08-20T03:36:06.297Z,15.45
2022-08-20T03:37:06.447Z,15.44
2022-08-20T03:38:06.348Z,15.44
2022-08-20T03:39:06.199Z,15.39
2022-08-20T03:40:06.319Z,15.37
2022-08-20T03:41:06.184Z,15.39
2022-08-20T03:42:06.293Z,15.35
2022-08-20T03:43:06.229Z,15.36
2022-08-20T03:44:06.295Z,15.35
2022-08-20T03:45:06.129Z,15.36
2022-08-20T03:46:06.123Z,15.36
2022-08-20T03:47:06.112Z,15.39
2022-08-20T03:48:06.170Z,15.43
2022-08-20T03:49:06.053Z,15.39
2022-08-20T03:50:06.050Z,15.39
2022-08-20T03:51:06.113Z,15.44
2022-08-20T03:52:06.292Z,15.45
2022-08-20T03:53:06.029Z,15.52
2022-08-20T03:54:06.058Z,15.55
2022-08-20T03:55:06.118Z,15.60
2022-08-20T03:56:05.968Z,15.62
2022-08-20T03:57:12.429Z,15.66
2022-08-20T03:58:05.978Z,15.70
2022-08-20T03:59:05.978Z,15.75
2022-08-20T04:00:05.977Z,15.80
2022-08-20T04:01:06.000Z,15.81
2022-08-20T04:02:06.012Z,15.84
2022-08-20T04:03:06.108Z,15.90
2022-08-20T04:04:06.043Z,15.90
2022-08-20T04:05:06.133Z,15.91
2022-08-20T04:06:05.982Z,15.92
2022-08-20T04:07:05.813Z,15.98
2022-08-20T04:08:05.973Z,15.96
2022-08-20T04:09:05.810Z,15.99
2022-08-20T04:10:06.022Z,16.00
2022-08-20T04:11:05.812Z,16.02
2022-08-20T04:12:05.963Z,16.03
2022-08-20T04:13:05.794Z,16.05
2022-08-20T04:14:05.749Z,16.08
2022-08-20T04:15:05.878Z,16.12
2022-08-20T04:16:05.978Z,16.16
2022-08-20T04:17:05.799Z,16.18
2022-08-20T04:18:05.688Z,16.24
2022-08-20T04:19:05.850Z,16.29
2022-08-20T04:20:05.647Z,16.36
2022-08-20T04:21:05.868Z,16.41
2022-08-20T04:22:05.658Z,16.46
2022-08-20T04:23:05.608Z,16.54
2022-08-20T04:24:05.657Z,16.59
2022-08-20T04:25:05.589Z,16.62
2022-08-20T04:26:05.713Z,16.64
2022-08-20T04:27:05.817Z,16.66
2022-08-20T04:28:05.646Z,16.73
2022-08-20T04:29:05.814Z,16.79
2022-08-20T04:30:05.653Z,16.87
2022-08-20T04:31:05.610Z,16.94
2022-08-20T04:32:06.015Z,16.98
2022-08-20T04:33:05.493Z,17.02
2022-08-20T04:34:05.463Z,17.05
2022-08-20T04:35:05.490Z,17.10
2022-08-20T04:36:05.425Z,17.12
2022-08-20T04:37:05.565Z,17.14
2022-08-20T04:38:05.658Z,17.19
2022-08-20T04:39:05.498Z,17.20
2022-08-20T04:40:05.449Z,17.23
2022-08-20T04:41:05.507Z,17.23
2022-08-20T04:42:05.447Z,17.24
2022-08-20T04:43:05.496Z,17.27
2022-08-20T04:44:05.338Z,17.28
2022-08-20T04:45:05.310Z,17.32
2022-08-20T04:46:05.318Z,17.38
2022-08-20T04:47:05.558Z,17.39
2022-08-20T04:48:05.345Z,17.41
2022-08-20T04:49:05.273Z,17.46
2022-08-20T04:50:05.343Z,17.44
2022-08-20T04:51:05.242Z,17.49
2022-08-20T04:52:05.323Z,17.52
2022-08-20T04:53:05.273Z,17.53
2022-08-20T04:54:05.323Z,17.56
2022-08-20T04:55:05.182Z,17.57
2022-08-20T04:56:05.152Z,17.57
2022-08-20T04:57:05.166Z,17.57
2022-08-20T04:58:05.143Z,17.57
2022-08-20T04:59:05.239Z,17.56
2022-08-20T05:00:05.348Z,17.57
2022-08-20T05:01:05.285Z,17.60
2022-08-20T05:02:05.328Z,17.60
2022-08-20T05:03:05.170Z,17.60
2022-08-20T05:04:05.117Z,17.60
2022-08-20T05:05:05.167Z,17.63
2022-08-20T05:06:05.018Z,17.66
2022-08-20T05:07:05.008Z,17.65
2022-08-20T05:08:05.007Z,17.68
2022-08-20T05:09:05.183Z,17.69
2022-08-20T05:10:05.003Z,17.69
2022-08-20T05:11:32.949Z,17.71
2022-08-20T05:12:05.003Z,17.69
2022-08-20T05:13:04.943Z,17.71
2022-08-20T05:14:05.096Z,17.71
2022-08-20T05:15:04.906Z,17.68
2022-08-20T05:16:05.002Z,17.68
2022-08-20T05:17:05.163Z,17.69
2022-08-20T05:18:05.014Z,17.69
2022-08-20T05:19:04.923Z,17.68
2022-08-20T05:20:05.038Z,17.66
2022-08-20T05:21:04.867Z,17.69
2022-08-20T05:22:04.832Z,17.75
2022-08-20T05:23:04.859Z,17.76
2022-08-20T05:24:05.040Z,17.78
2022-08-20T05:25:04.938Z,17.78
2022-08-20T05:26:04.998Z,17.80
2022-08-20T05:27:04.849Z,17.82
2022-08-20T05:28:04.739Z,17.84
2022-08-20T05:29:04.882Z,17.82
2022-08-20T05:30:04.699Z,17.87
2022-08-20T05:31:04.934Z,17.87
2022-08-20T05:32:04.698Z,17.90
2022-08-20T05:33:04.852Z,17.91
2022-08-20T05:34:04.686Z,17.94
2022-08-20T05:35:04.846Z,17.94
2022-08-20T05:36:04.743Z,17.95
2022-08-20T05:37:04.848Z,17.97
2022-08-20T05:38:04.684Z,17.98
2022-08-20T05:39:04.842Z,17.98
2022-08-20T05:40:04.720Z,18.03
2022-08-20T05:41:04.617Z,18.06
2022-08-20T05:42:04.688Z,18.03
2022-08-20T05:43:04.537Z,18.06
2022-08-20T05:44:04.697Z,18.06
2022-08-20T05:45:04.528Z,18.08
2022-08-20T05:46:04.697Z,18.11
2022-08-20T05:47:04.637Z,18.15
2022-08-20T05:48:04.690Z,18.13
2022-08-20T05:49:04.536Z,18.12
2022-08-20T05:50:04.438Z,18.16
2022-08-20T05:51:04.519Z,18.19
2022-08-20T05:52:04.505Z,18.26
2022-08-20T05:53:04.524Z,18.30
2022-08-20T05:54:04.703Z,18.34
2022-08-20T05:55:04.393Z,18.37
2022-08-20T05:56:04.373Z,18.41
2022-08-20T05:57:04.533Z,18.41
2022-08-20T05:58:04.448Z,18.39
2022-08-20T05:59:04.541Z,18.37
2022-08-20T06:00:04.414Z,18.37
2022-08-20T06:01:04.365Z,18.36
2022-08-20T06:02:04.373Z,18.36
2022-08-20T06:03:04.311Z,18.37
2022-08-20T06:04:04.459Z,18.34
2022-08-20T06:05:04.248Z,18.36
2022-08-20T06:06:04.367Z,18.37
2022-08-20T06:07:04.237Z,18.41
2022-08-20T06:08:07.624Z,18.41
2022-08-20T06:09:04.557Z,18.42
2022-08-20T06:10:04.178Z,18.45
2022-08-20T06:11:04.208Z,18.43
2022-08-20T06:12:04.166Z,18.43
2022-08-20T06:13:04.214Z,18.43
2022-08-20T06:14:04.372Z,18.43
2022-08-20T06:15:04.294Z,18.41
2022-08-20T06:16:06.935Z,18.39
2022-08-20T06:17:04.093Z,18.36
2022-08-20T06:18:07.183Z,18.33
2022-08-20T06:19:04.203Z,18.31
2022-08-20T06:20:04.114Z,18.28
2022-08-20T06:21:04.042Z,18.30
2022-08-20T06:22:08.615Z,18.28
2022-08-20T06:23:04.034Z,18.27
2022-08-20T06:24:04.060Z,18.28
2022-08-20T06:25:04.058Z,18.28
2022-08-20T06:26:04.048Z,18.28
2022-08-20T06:27:04.217Z,18.28
2022-08-20T06:28:04.048Z,18.31
2022-08-20T06:29:04.228Z,18.36
2022-08-20T06:30:04.118Z,18.37
2022-08-20T06:31:04.198Z,18.42
2022-08-20T06:32:03.898Z,18.45
2022-08-20T06:33:03.888Z,18.49
2022-08-20T06:34:03.883Z,18.53
2022-08-20T06:35:04.007Z,18.55
2022-08-20T06:36:04.134Z,18.60
2022-08-20T06:37:03.894Z,18.61
2022-08-20T06:38:04.063Z,18.61
2022-08-20T06:39:03.885Z,18.60
2022-08-20T06:40:03.932Z,18.60
2022-08-20T06:41:03.842Z,18.60
2022-08-20T06:42:03.763Z,18.60
2022-08-20T06:43:03.883Z,18.61
2022-08-20T06:44:03.742Z,18.58
2022-08-20T06:45:03.737Z,18.60
2022-08-20T06:46:03.748Z,18.58
2022-08-20T06:47:04.093Z,18.58
2022-08-20T06:48:03.728Z,18.52
2022-08-20T06:49:03.679Z,18.49
2022-08-20T06:50:03.727Z,18.46
2022-08-20T06:51:03.888Z,18.42
2022-08-20T06:52:03.797Z,18.43
2022-08-20T06:53:03.634Z,18.43
2022-08-20T06:54:03.729Z,18.41
2022-08-20T06:55:03.623Z,18.42
2022-08-20T06:56:03.583Z,18.37
2022-08-20T06:57:03.583Z,18.34
2022-08-20T06:58:03.814Z,18.34
2022-08-20T06:59:03.583Z,18.34
2022-08-20T07:00:03.732Z,18.34
2022-08-20T07:01:10.221Z,18.37
2022-08-20T07:02:03.723Z,18.39
2022-08-20T07:03:03.565Z,18.37
2022-08-20T07:04:03.544Z,18.37
2022-08-20T07:05:03.577Z,18.37
2022-08-20T07:06:03.457Z,18.41
2022-08-20T07:07:03.578Z,18.42
2022-08-20T07:08:03.439Z,18.42
2022-08-20T07:09:03.479Z,18.42
2022-08-20T07:10:03.398Z,18.45
2022-08-20T07:11:03.388Z,18.46
2022-08-20T07:12:03.465Z,18.46
2022-08-20T07:13:03.558Z,18.45
2022-08-20T07:14:03.457Z,18.43
2022-08-20T07:15:03.578Z,18.45
2022-08-20T07:16:03.413Z,18.48
2022-08-20T07:17:03.313Z,18.42
2022-08-20T07:18:03.402Z,18.45
2022-08-20T07:19:03.322Z,18.45
2022-08-20T07:20:03.403Z,18.48
2022-08-20T07:21:03.249Z,18.51
2022-08-20T07:22:03.242Z,18.51
2022-08-20T07:23:03.242Z,18.48
2022-08-20T07:24:03.473Z,18.49
2022-08-20T07:25:03.242Z,18.48
2022-08-20T07:26:03.197Z,18.48
2022-08-20T07:27:03.267Z,18.45
2022-08-20T07:28:03.418Z,18.43
2022-08-20T07:29:03.269Z,18.43
2022-08-20T07:30:03.499Z,18.39
2022-08-20T07:31:12.275Z,18.33
2022-08-20T07:32:03.182Z,18.30
2022-08-20T07:33:03.272Z,18.33
2022-08-20T07:34:03.279Z,18.33
2022-08-20T07:35:03.078Z,18.34
2022-08-20T07:36:03.158Z,18.31
2022-08-20T07:37:03.253Z,18.26
2022-08-20T07:38:03.092Z,18.27
2022-08-20T07:39:06.093Z,18.24
2022-08-20T07:40:03.168Z,18.21
2022-08-20T07:41:03.243Z,18.24
2022-08-20T07:42:03.274Z,18.24
2022-08-20T07:43:02.973Z,18.24
2022-08-20T07:44:03.110Z,18.19
2022-08-20T07:45:03.243Z,18.15
2022-08-20T07:46:03.086Z,18.11
2022-08-20T07:47:03.026Z,18.06
2022-08-20T07:48:03.088Z,18.03
2022-08-20T07:49:02.937Z,18.03
2022-08-20T07:50:02.877Z,18.00
2022-08-20T07:51:02.943Z,17.94
2022-08-20T07:52:03.148Z,17.87
2022-08-20T07:53:02.927Z,17.82
2022-08-20T07:54:02.817Z,17.84
2022-08-20T07:55:02.978Z,17.84
2022-08-20T07:56:03.088Z,17.76
2022-08-20T07:57:02.855Z,17.73
2022-08-20T07:58:02.772Z,17.73
2022-08-20T07:59:02.932Z,17.75
2022-08-20T08:00:02.807Z,17.73
2022-08-20T08:01:02.795Z,17.68
2022-08-20T08:02:02.849Z,17.69
2022-08-20T08:03:02.713Z,17.69
2022-08-20T08:04:02.775Z,17.69
2022-08-20T08:05:02.692Z,17.68
2022-08-20T08:06:02.752Z,17.69
2022-08-20T08:07:02.703Z,17.68
2022-08-20T08:08:05.722Z,17.69
2022-08-20T08:09:02.668Z,17.68
2022-08-20T08:10:02.617Z,17.68
2022-08-20T08:11:02.627Z,17.69
2022-08-20T08:12:02.589Z,17.71
2022-08-20T08:13:02.700Z,17.71
2022-08-20T08:14:02.547Z,17.69
2022-08-20T08:15:02.631Z,17.68
2022-08-20T08:16:02.518Z,17.69
2022-08-20T08:17:02.520Z,17.71
2022-08-20T08:18:02.763Z,17.66
2022-08-20T08:19:02.683Z,17.65
2022-08-20T08:20:02.484Z,17.66
2022-08-20T08:21:02.603Z,17.69
2022-08-20T08:22:02.454Z,17.68
2022-08-20T08:23:02.453Z,17.65
2022-08-20T08:24:02.549Z,17.63
2022-08-20T08:25:02.608Z,17.59
2022-08-20T08:26:02.454Z,17.56
2022-08-20T08:27:02.386Z,17.56
2022-08-20T08:28:02.453Z,17.56
2022-08-20T08:29:02.651Z,17.57
2022-08-20T08:30:02.530Z,17.57
2022-08-20T08:31:02.339Z,17.59
2022-08-20T08:32:02.460Z,17.54
2022-08-20T08:33:02.298Z,17.56
2022-08-20T08:34:02.375Z,17.57
2022-08-20T08:35:02.279Z,17.60
2022-08-20T08:36:02.439Z,17.65
2022-08-20T08:37:02.278Z,17.65
2022-08-20T08:38:02.228Z,17.65
2022-08-20T08:39:02.374Z,17.63
2022-08-20T08:40:02.494Z,17.65
2022-08-20T08:41:02.272Z,17.66
2022-08-20T08:42:02.186Z,17.66
2022-08-20T08:43:02.163Z,17.69
2022-08-20T08:44:02.156Z,17.72
2022-08-20T08:45:02.203Z,17.75
2022-08-20T08:46:02.123Z,17.76
2022-08-20T08:47:02.103Z,17.80
2022-08-20T08:48:02.139Z,17.84
2022-08-20T08:49:02.344Z,17.80
2022-08-20T08:50:02.127Z,17.79
2022-08-20T08:51:02.288Z,17.78
2022-08-20T08:52:02.137Z,17.76
2022-08-20T08:53:02.301Z,17.86
2022-08-20T08:54:06.623Z,17.86
2022-08-20T08:55:02.291Z,17.86
2022-08-20T08:56:02.137Z,17.90
2022-08-20T08:57:01.968Z,17.90
2022-08-20T08:58:04.267Z,17.87
2022-08-20T08:59:02.032Z,17.88
2022-08-20T09:00:03.913Z,17.87
2022-08-20T09:01:05.784Z,17.87
2022-08-20T09:02:02.259Z,17.88
2022-08-20T09:03:02.104Z,17.90
2022-08-20T09:04:01.963Z,17.90
2022-08-20T09:05:01.991Z,17.90
2022-08-20T09:06:01.852Z,17.93
2022-08-20T09:07:01.964Z,17.95
2022-08-20T09:08:01.823Z,17.94
2022-08-20T09:09:01.864Z,17.98
2022-08-20T09:10:01.830Z,17.97
2022-08-20T09:11:01.978Z,17.98
2022-08-20T09:12:01.828Z,18.00
2022-08-20T09:13:01.978Z,18.02
2022-08-20T09:14:01.878Z,18.05
2022-08-20T09:15:01.995Z,18.09
2022-08-20T09:16:01.709Z,18.12
2022-08-20T09:17:01.697Z,18.12
2022-08-20T09:18:01.830Z,18.15
2022-08-20T09:19:01.758Z,18.15
2022-08-20T09:20:01.829Z,18.12
2022-08-20T09:21:01.692Z,18.15
2022-08-20T09:22:01.813Z,18.15
2022-08-20T09:23:01.674Z,18.21
2022-08-20T09:24:01.903Z,18.24
2022-08-20T09:25:01.653Z,18.27
2022-08-20T09:26:01.592Z,18.26
2022-08-20T09:27:01.584Z,18.26
2022-08-20T09:28:01.569Z,18.21
2022-08-20T09:29:01.722Z,18.26
2022-08-20T09:30:01.538Z,18.26
2022-08-20T09:31:01.644Z,18.27
2022-08-20T09:32:01.531Z,18.27
2022-08-20T09:33:01.657Z,18.28
2022-08-20T09:34:01.610Z,18.28
2022-08-20T09:35:01.479Z,18.28
2022-08-20T09:36:01.505Z,18.33
2022-08-20T09:37:01.663Z,18.34
2022-08-20T09:38:01.498Z,18.34
2022-08-20T09:39:02.632Z,18.36
2022-08-20T09:40:01.555Z,18.37
2022-08-20T09:41:01.670Z,18.41
2022-08-20T09:42:01.403Z,18.43
2022-08-20T09:43:01.447Z,18.43
2022-08-20T09:44:01.512Z,18.43
2022-08-20T09:45:01.353Z,18.43
2022-08-20T09:46:01.361Z,18.43
2022-08-20T09:47:01.343Z,18.43
2022-08-20T09:48:01.584Z,18.42
2022-08-20T09:49:01.342Z,18.43
2022-08-20T09:50:01.513Z,18.43
2022-08-20T09:51:01.323Z,18.41
2022-08-20T09:52:01.270Z,18.42
2022-08-20T09:53:01.409Z,18.41
2022-08-20T09:54:01.242Z,18.41
2022-08-20T09:55:01.327Z,18.37
2022-08-20T09:56:01.218Z,18.37
2022-08-20T09:57:01.350Z,18.37
2022-08-20T09:58:01.248Z,18.31
2022-08-20T09:59:03.041Z,18.31
2022-08-20T10:00:01.148Z,18.33
2022-08-20T10:01:01.137Z,18.28
2022-08-20T10:02:01.225Z,18.30
2022-08-20T10:03:01.431Z,18.33
2022-08-20T10:04:01.188Z,18.36
2022-08-20T10:05:01.093Z,18.36
2022-08-20T10:06:01.183Z,18.37
2022-08-20T10:07:01.082Z,18.42
2022-08-20T10:08:01.243Z,18.45
2022-08-20T10:09:01.034Z,18.48
2022-08-20T10:10:01.023Z,18.46
2022-08-20T10:11:01.023Z,18.46
2022-08-20T10:12:01.183Z,18.52
2022-08-20T10:13:01.085Z,18.55
2022-08-20T10:14:00.981Z,18.53
2022-08-20T10:15:00.958Z,18.57
2022-08-20T10:16:01.184Z,18.60
2022-08-20T10:17:01.007Z,18.63
2022-08-20T10:18:01.257Z,18.63
2022-08-20T10:19:01.029Z,18.66
2022-08-20T10:20:01.169Z,18.66
2022-08-20T10:21:01.022Z,18.67
2022-08-20T10:22:00.898Z,18.67
2022-08-20T10:23:01.098Z,18.67
2022-08-20T10:24:00.870Z,18.71
2022-08-20T10:25:01.022Z,18.74
2022-08-20T10:26:00.853Z,18.78
2022-08-20T10:27:01.013Z,18.79
2022-08-20T10:28:00.943Z,18.86
2022-08-20T10:29:01.031Z,18.85
2022-08-20T10:30:00.852Z,18.88
2022-08-20T10:31:01.014Z,18.89
2022-08-20T10:32:00.862Z,18.92
2022-08-20T10:33:00.802Z,18.97
2022-08-20T10:34:00.723Z,18.97
2022-08-20T10:35:00.708Z,19.01
2022-08-20T10:36:00.870Z,19.12
2022-08-20T10:37:00.688Z,19.24
2022-08-20T10:38:00.728Z,19.32
2022-08-20T10:39:00.709Z,19.41
2022-08-20T10:40:00.692Z,19.49
2022-08-20T10:41:00.710Z,19.63
2022-08-20T10:42:00.642Z,19.70
2022-08-20T10:43:00.777Z,19.66
2022-08-20T10:44:00.582Z,19.75
2022-08-20T10:45:00.693Z,19.84
2022-08-20T10:46:00.870Z,19.97
2022-08-20T10:47:00.713Z,19.96
2022-08-20T10:48:00.602Z,20.04
2022-08-20T10:49:00.692Z,20.08
2022-08-20T10:50:00.542Z,20.08
2022-08-20T10:51:00.502Z,20.00
2022-08-20T10:52:00.549Z,19.85
2022-08-20T10:53:00.532Z,19.82
2022-08-20T10:54:00.549Z,19.75
2022-08-20T10:55:00.434Z,19.70
2022-08-20T10:56:00.538Z,19.71
2022-08-20T10:57:00.408Z,19.75
2022-08-20T10:58:00.548Z,19.79
2022-08-20T10:59:00.409Z,19.81
2022-08-20T11:00:00.357Z,19.77
2022-08-20T11:01:00.388Z,19.82
2022-08-20T11:02:00.448Z,19.82
2022-08-20T11:03:00.390Z,19.84
2022-08-20T11:04:00.367Z,19.79
2022-08-20T11:05:00.353Z,19.74
2022-08-20T11:06:00.303Z,19.78
2022-08-20T11:07:00.384Z,19.87
2022-08-20T11:08:00.374Z,19.93
2022-08-20T11:09:00.407Z,19.94
2022-08-20T11:10:00.283Z,19.90
2022-08-20T11:11:00.432Z,19.89
2022-08-20T11:12:00.202Z,19.93
2022-08-20T11:13:00.446Z,19.93
2022-08-20T11:14:00.222Z,19.94
2022-08-20T11:15:00.535Z,19.92
2022-08-20T11:16:00.169Z,19.81
2022-08-20T11:17:00.390Z,19.79
2022-08-20T11:18:00.238Z,19.77
2022-08-20T11:19:00.187Z,19.74
2022-08-20T11:20:00.275Z,19.75
2022-08-20T11:21:00.190Z,19.67
2022-08-20T11:22:00.084Z,19.59
2022-08-20T11:23:00.097Z,19.55
2022-08-20T11:24:02.889Z,19.48
2022-08-20T11:25:00.069Z,19.47
2022-08-20T11:26:00.143Z,19.52
2022-08-20T11:27:00.054Z,19.59
2022-08-20T11:28:00.229Z,19.49
2022-08-20T11:28:59.973Z,19.48
2022-08-20T11:30:00.224Z,19.44
2022-08-20T11:30:59.991Z,19.41
2022-08-20T11:32:00.014Z,19.41
2022-08-20T11:33:00.070Z,19.52
2022-08-20T11:33:59.944Z,19.59
2022-08-20T11:34:59.914Z,19.49
2022-08-20T11:35:59.890Z,19.42
2022-08-20T11:36:59.929Z,19.38
2022-08-20T11:37:59.910Z,19.32
2022-08-20T11:39:00.077Z,19.42
2022-08-20T11:39:59.971Z,19.55
2022-08-20T11:40:59.822Z,19.57
2022-08-20T11:41:59.897Z,19.59
2022-08-20T11:43:16.619Z,19.66
2022-08-20T11:44:21.232Z,19.66
2022-08-20T11:45:00.040Z,19.64
2022-08-20T11:45:59.744Z,19.74
2022-08-20T11:46:59.823Z,19.75
2022-08-20T11:47:59.753Z,19.71
2022-08-20T11:48:59.790Z,19.64
2022-08-20T11:49:59.892Z,19.55
2022-08-20T11:50:59.802Z,19.48
2022-08-20T11:51:59.762Z,19.47
2022-08-20T11:53:01.486Z,19.42
2022-08-20T11:53:59.650Z,19.45
2022-08-20T11:54:59.791Z,19.44
2022-08-20T11:55:59.968Z,19.45
2022-08-20T11:56:59.750Z,19.49
2022-08-20T11:58:00.713Z,19.52
2022-08-20T11:58:59.757Z,19.48
2022-08-20T11:59:59.557Z,19.39
2022-08-20T12:00:59.679Z,19.37
2022-08-20T12:02:03.240Z,19.37
2022-08-20T12:02:59.983Z,19.35
2022-08-20T12:03:59.598Z,19.38
2022-08-20T12:04:59.517Z,19.38
2022-08-20T12:05:59.690Z,19.37
2022-08-20T12:07:00.622Z,19.39
2022-08-20T12:07:59.603Z,19.42
2022-08-20T12:08:59.761Z,19.41
2022-08-20T12:09:59.429Z,19.49
2022-08-20T12:10:59.526Z,19.56
2022-08-20T12:11:59.414Z,19.57
2022-08-20T12:12:59.760Z,19.49
2022-08-20T12:13:59.378Z,19.47
2022-08-20T12:14:59.413Z,19.41
2022-08-20T12:15:59.577Z,19.39
2022-08-20T12:16:59.478Z,19.47
2022-08-20T12:17:59.582Z,19.47
2022-08-20T12:18:59.408Z,19.45
2022-08-20T12:19:59.329Z,19.48
2022-08-20T12:20:59.290Z,19.49
2022-08-20T12:21:59.327Z,19.49
2022-08-20T12:22:59.442Z,19.44
2022-08-20T12:23:59.257Z,19.47
2022-08-20T12:24:59.237Z,19.49
2022-08-20T12:26:01.635Z,19.53
2022-08-20T12:26:59.290Z,19.53
2022-08-20T12:27:59.266Z,19.47
2022-08-20T12:28:59.447Z,19.49
2022-08-20T12:29:59.274Z,19.53
2022-08-20T12:30:59.504Z,19.57
2022-08-20T12:31:59.183Z,19.57
2022-08-20T12:32:59.123Z,19.57
2022-08-20T12:33:59.273Z,19.59
2022-08-20T12:34:59.103Z,19.62
2022-08-20T12:35:59.103Z,19.66
2022-08-20T12:36:59.198Z,19.62
2022-08-20T12:37:59.305Z,19.62
2022-08-20T12:38:59.098Z,19.59
2022-08-20T12:39:59.100Z,19.57
2022-08-20T12:40:59.180Z,19.60
2022-08-20T12:41:59.060Z,19.59
2022-08-20T12:42:59.099Z,19.59
2022-08-20T12:43:58.977Z,19.60
2022-08-20T12:44:59.111Z,19.63
2022-08-20T12:45:59.008Z,19.63
2022-08-20T12:46:59.092Z,19.62
2022-08-20T12:47:58.943Z,19.59
2022-08-20T12:48:59.096Z,19.57
2022-08-20T12:49:58.936Z,19.57
2022-08-20T12:50:58.983Z,19.56
2022-08-20T12:51:58.884Z,19.59